sensor_id;sensor_type;location;lat;lon;timestamp;P1;durP1;ratioP1;P2;durP2;ratioP2
67063;SDS011;58476;48.072;11.970;2023-02-28T00:01:37;2.20;;;1.40;;
67063;SDS011;58476;48.072;11.970;2023-02-28T00:04:03;2.15;;;1.30;;
67063;SDS011;58476;48.072;11.970;2023-02-28T00:06:28;2.28;;;1.38;;
67063;SDS011;58476;48.072;11.970;2023-02-28T00:08:54;2.42;;;1.48;;
67063;SDS011;58476;48.072;11.970;2023-02-28T00:11:20;2.22;;;1.38;;
67063;SDS011;58476;48.072;11.970;2023-02-28T00:13:46;3.05;;;1.50;;
67063;SDS011;58476;48.072;11.970;2023-02-28T00:16:13;3.45;;;1.52;;
67063;SDS011;58476;48.072;11.970;2023-02-28T00:18:46;2.22;;;1.30;;
67063;SDS011;58476;48.072;11.970;2023-02-28T00:21:11;2.60;;;1.50;;
67063;SDS011;58476;48.072;11.970;2023-02-28T00:23:37;2.20;;;1.40;;
67063;SDS011;58476;48.072;11.970;2023-02-28T00:26:02;2.92;;;1.40;;
67063;SDS011;58476;48.072;11.970;2023-02-28T00:28:28;3.85;;;1.45;;
67063;SDS011;58476;48.072;11.970;2023-02-28T00:30:54;1.73;;;1.58;;
67063;SDS011;58476;48.072;11.970;2023-02-28T00:33:19;1.88;;;1.38;;
67063;SDS011;58476;48.072;11.970;2023-02-28T00:35:46;2.55;;;1.38;;
67063;SDS011;58476;48.072;11.970;2023-02-28T00:38:12;2.60;;;1.60;;
67063;SDS011;58476;48.072;11.970;2023-02-28T00:40:38;2.38;;;1.30;;
67063;SDS011;58476;48.072;11.970;2023-02-28T00:43:03;3.22;;;1.65;;
67063;SDS011;58476;48.072;11.970;2023-02-28T00:45:29;2.85;;;1.40;;
67063;SDS011;58476;48.072;11.970;2023-02-28T00:47:56;3.22;;;1.33;;
67063;SDS011;58476;48.072;11.970;2023-02-28T00:50:21;1.95;;;1.40;;
67063;SDS011;58476;48.072;11.970;2023-02-28T00:52:47;1.63;;;1.40;;
67063;SDS011;58476;48.072;11.970;2023-02-28T00:55:13;1.40;;;1.27;;
67063;SDS011;58476;48.072;11.970;2023-02-28T00:57:39;2.45;;;1.30;;
67063;SDS011;58476;48.072;11.970;2023-02-28T01:00:04;2.00;;;1.40;;
67063;SDS011;58476;48.072;11.970;2023-02-28T01:02:31;1.52;;;1.40;;
67063;SDS011;58476;48.072;11.970;2023-02-28T01:04:56;2.03;;;1.50;;
67063;SDS011;58476;48.072;11.970;2023-02-28T01:07:22;1.63;;;1.25;;
67063;SDS011;58476;48.072;11.970;2023-02-28T01:09:48;2.03;;;1.38;;
67063;SDS011;58476;48.072;11.970;2023-02-28T01:12:13;1.42;;;1.33;;
67063;SDS011;58476;48.072;11.970;2023-02-28T01:14:39;2.22;;;1.50;;
67063;SDS011;58476;48.072;11.970;2023-02-28T01:17:04;2.55;;;1.50;;
67063;SDS011;58476;48.072;11.970;2023-02-28T01:19:30;1.67;;;1.50;;
67063;SDS011;58476;48.072;11.970;2023-02-28T01:21:56;3.63;;;1.40;;
67063;SDS011;58476;48.072;11.970;2023-02-28T01:24:21;2.45;;;1.58;;
67063;SDS011;58476;48.072;11.970;2023-02-28T01:26:46;3.65;;;1.50;;
67063;SDS011;58476;48.072;11.970;2023-02-28T01:29:12;3.28;;;1.40;;
67063;SDS011;58476;48.072;11.970;2023-02-28T01:31:37;1.70;;;1.40;;
67063;SDS011;58476;48.072;11.970;2023-02-28T01:34:02;1.80;;;1.40;;
67063;SDS011;58476;48.072;11.970;2023-02-28T01:36:28;1.83;;;1.48;;
67063;SDS011;58476;48.072;11.970;2023-02-28T01:38:54;10.95;;;2.25;;
67063;SDS011;58476;48.072;11.970;2023-02-28T01:41:21;5.60;;;1.92;;
67063;SDS011;58476;48.072;11.970;2023-02-28T01:43:54;6.15;;;1.70;;
67063;SDS011;58476;48.072;11.970;2023-02-28T01:46:21;6.75;;;1.90;;
67063;SDS011;58476;48.072;11.970;2023-02-28T01:51:49;2.35;;;1.60;;
67063;SDS011;58476;48.072;11.970;2023-02-28T01:54:21;1.95;;;1.35;;
67063;SDS011;58476;48.072;11.970;2023-02-28T01:57:03;4.20;;;1.73;;
67063;SDS011;58476;48.072;11.970;2023-02-28T01:59:34;7.03;;;1.70;;
67063;SDS011;58476;48.072;11.970;2023-02-28T02:02:02;4.07;;;1.88;;
67063;SDS011;58476;48.072;11.970;2023-02-28T02:04:31;3.55;;;1.40;;
67063;SDS011;58476;48.072;11.970;2023-02-28T02:07:02;3.42;;;1.88;;
67063;SDS011;58476;48.072;11.970;2023-02-28T02:09:28;2.95;;;1.67;;
67063;SDS011;58476;48.072;11.970;2023-02-28T02:11:54;3.78;;;1.60;;
67063;SDS011;58476;48.072;11.970;2023-02-28T02:14:45;3.88;;;1.58;;
67063;SDS011;58476;48.072;11.970;2023-02-28T02:17:21;2.65;;;1.60;;
67063;SDS011;58476;48.072;11.970;2023-02-28T02:22:58;3.22;;;1.70;;
67063;SDS011;58476;48.072;11.970;2023-02-28T02:36:50;3.42;;;1.65;;
67063;SDS011;58476;48.072;11.970;2023-02-28T02:39:27;2.85;;;1.70;;
67063;SDS011;58476;48.072;11.970;2023-02-28T02:42:18;5.65;;;1.80;;
67063;SDS011;58476;48.072;11.970;2023-02-28T02:44:59;4.45;;;1.70;;
67063;SDS011;58476;48.072;11.970;2023-02-28T02:47:30;2.40;;;1.65;;
67063;SDS011;58476;48.072;11.970;2023-02-28T02:49:59;3.30;;;1.77;;
67063;SDS011;58476;48.072;11.970;2023-02-28T02:52:31;3.15;;;1.52;;
67063;SDS011;58476;48.072;11.970;2023-02-28T02:55:03;5.25;;;2.70;;
67063;SDS011;58476;48.072;11.970;2023-02-28T02:57:32;2.88;;;1.60;;
67063;SDS011;58476;48.072;11.970;2023-02-28T03:00:02;2.85;;;1.58;;
67063;SDS011;58476;48.072;11.970;2023-02-28T03:02:29;4.68;;;1.63;;
67063;SDS011;58476;48.072;11.970;2023-02-28T03:04:58;3.60;;;1.90;;
67063;SDS011;58476;48.072;11.970;2023-02-28T03:07:27;1.88;;;1.70;;
67063;SDS011;58476;48.072;11.970;2023-02-28T03:09:53;2.80;;;1.80;;
67063;SDS011;58476;48.072;11.970;2023-02-28T03:12:20;2.42;;;1.60;;
67063;SDS011;58476;48.072;11.970;2023-02-28T03:14:56;2.67;;;1.80;;
67063;SDS011;58476;48.072;11.970;2023-02-28T03:20:04;3.53;;;1.80;;
67063;SDS011;58476;48.072;11.970;2023-02-28T03:25:37;3.35;;;1.73;;
67063;SDS011;58476;48.072;11.970;2023-02-28T03:31:00;2.53;;;1.77;;
67063;SDS011;58476;48.072;11.970;2023-02-28T03:33:34;2.65;;;1.70;;
67063;SDS011;58476;48.072;11.970;2023-02-28T03:36:04;3.33;;;1.73;;
67063;SDS011;58476;48.072;11.970;2023-02-28T03:38:36;2.25;;;1.70;;
67063;SDS011;58476;48.072;11.970;2023-02-28T03:44:11;2.55;;;1.75;;
67063;SDS011;58476;48.072;11.970;2023-02-28T03:46:44;2.85;;;1.98;;
67063;SDS011;58476;48.072;11.970;2023-02-28T03:49:22;2.45;;;1.65;;
67063;SDS011;58476;48.072;11.970;2023-02-28T03:51:51;2.30;;;1.67;;
67063;SDS011;58476;48.072;11.970;2023-02-28T03:54:20;2.17;;;1.83;;
67063;SDS011;58476;48.072;11.970;2023-02-28T03:56:57;2.25;;;1.90;;
67063;SDS011;58476;48.072;11.970;2023-02-28T03:59:32;2.60;;;1.80;;
67063;SDS011;58476;48.072;11.970;2023-02-28T04:02:03;2.53;;;1.83;;
67063;SDS011;58476;48.072;11.970;2023-02-28T04:04:28;4.35;;;1.80;;
67063;SDS011;58476;48.072;11.970;2023-02-28T04:07:00;2.35;;;1.90;;
67063;SDS011;58476;48.072;11.970;2023-02-28T04:09:27;4.40;;;1.85;;
67063;SDS011;58476;48.072;11.970;2023-02-28T04:11:53;2.35;;;1.80;;
67063;SDS011;58476;48.072;11.970;2023-02-28T04:14:18;2.88;;;1.70;;
67063;SDS011;58476;48.072;11.970;2023-02-28T04:16:44;2.58;;;1.90;;
67063;SDS011;58476;48.072;11.970;2023-02-28T04:19:11;3.17;;;2.10;;
67063;SDS011;58476;48.072;11.970;2023-02-28T04:21:39;2.60;;;1.77;;
67063;SDS011;58476;48.072;11.970;2023-02-28T04:24:10;2.28;;;1.92;;
67063;SDS011;58476;48.072;11.970;2023-02-28T04:26:37;1.95;;;1.65;;
67063;SDS011;58476;48.072;11.970;2023-02-28T04:29:03;2.67;;;1.90;;
67063;SDS011;58476;48.072;11.970;2023-02-28T04:31:30;2.20;;;1.80;;
67063;SDS011;58476;48.072;11.970;2023-02-28T04:33:56;3.70;;;2.05;;
67063;SDS011;58476;48.072;11.970;2023-02-28T04:36:21;3.35;;;2.00;;
67063;SDS011;58476;48.072;11.970;2023-02-28T04:38:47;3.50;;;1.80;;
67063;SDS011;58476;48.072;11.970;2023-02-28T04:41:12;3.38;;;2.30;;
67063;SDS011;58476;48.072;11.970;2023-02-28T04:43:38;4.05;;;2.47;;
67063;SDS011;58476;48.072;11.970;2023-02-28T04:46:04;4.40;;;2.55;;
67063;SDS011;58476;48.072;11.970;2023-02-28T04:48:31;4.90;;;2.55;;
67063;SDS011;58476;48.072;11.970;2023-02-28T04:51:02;4.15;;;2.45;;
67063;SDS011;58476;48.072;11.970;2023-02-28T04:53:28;7.70;;;2.75;;
67063;SDS011;58476;48.072;11.970;2023-02-28T04:55:54;5.25;;;2.58;;
67063;SDS011;58476;48.072;11.970;2023-02-28T04:58:20;5.45;;;2.60;;
67063;SDS011;58476;48.072;11.970;2023-02-28T05:00:45;3.65;;;2.33;;
67063;SDS011;58476;48.072;11.970;2023-02-28T05:03:11;4.38;;;2.30;;
67063;SDS011;58476;48.072;11.970;2023-02-28T05:05:36;7.22;;;2.65;;
67063;SDS011;58476;48.072;11.970;2023-02-28T05:08:04;4.53;;;2.45;;
67063;SDS011;58476;48.072;11.970;2023-02-28T05:10:29;6.43;;;2.80;;
67063;SDS011;58476;48.072;11.970;2023-02-28T05:12:55;3.95;;;2.35;;
67063;SDS011;58476;48.072;11.970;2023-02-28T05:15:20;3.65;;;2.30;;
67063;SDS011;58476;48.072;11.970;2023-02-28T05:17:45;5.07;;;2.80;;
67063;SDS011;58476;48.072;11.970;2023-02-28T05:20:11;3.55;;;2.40;;
67063;SDS011;58476;48.072;11.970;2023-02-28T05:22:37;4.55;;;2.95;;
67063;SDS011;58476;48.072;11.970;2023-02-28T05:25:03;3.35;;;2.45;;
67063;SDS011;58476;48.072;11.970;2023-02-28T05:27:29;5.53;;;2.47;;
67063;SDS011;58476;48.072;11.970;2023-02-28T05:29:54;5.03;;;2.75;;
67063;SDS011;58476;48.072;11.970;2023-02-28T05:32:20;7.60;;;3.13;;
67063;SDS011;58476;48.072;11.970;2023-02-28T05:34:45;4.78;;;2.75;;
67063;SDS011;58476;48.072;11.970;2023-02-28T05:37:11;8.13;;;2.70;;
67063;SDS011;58476;48.072;11.970;2023-02-28T05:39:37;7.63;;;2.53;;
67063;SDS011;58476;48.072;11.970;2023-02-28T05:42:03;12.48;;;2.55;;
67063;SDS011;58476;48.072;11.970;2023-02-28T05:44:28;6.15;;;2.83;;
67063;SDS011;58476;48.072;11.970;2023-02-28T05:46:53;9.48;;;3.08;;
67063;SDS011;58476;48.072;11.970;2023-02-28T05:49:19;5.32;;;2.63;;
67063;SDS011;58476;48.072;11.970;2023-02-28T05:51:44;10.77;;;3.20;;
67063;SDS011;58476;48.072;11.970;2023-02-28T05:54:10;6.80;;;2.83;;
67063;SDS011;58476;48.072;11.970;2023-02-28T05:56:35;5.85;;;3.17;;
67063;SDS011;58476;48.072;11.970;2023-02-28T05:59:00;4.10;;;2.47;;
67063;SDS011;58476;48.072;11.970;2023-02-28T06:01:34;4.47;;;2.75;;
67063;SDS011;58476;48.072;11.970;2023-02-28T06:04:02;8.75;;;3.20;;
67063;SDS011;58476;48.072;11.970;2023-02-28T06:06:28;7.93;;;3.45;;
67063;SDS011;58476;48.072;11.970;2023-02-28T06:08:54;13.10;;;3.92;;
67063;SDS011;58476;48.072;11.970;2023-02-28T06:11:20;9.90;;;3.03;;
67063;SDS011;58476;48.072;11.970;2023-02-28T06:13:45;10.07;;;3.63;;
67063;SDS011;58476;48.072;11.970;2023-02-28T06:16:11;11.45;;;3.47;;
67063;SDS011;58476;48.072;11.970;2023-02-28T06:18:37;10.38;;;3.65;;
67063;SDS011;58476;48.072;11.970;2023-02-28T06:21:03;22.63;;;4.45;;
67063;SDS011;58476;48.072;11.970;2023-02-28T06:23:28;10.50;;;3.58;;
67063;SDS011;58476;48.072;11.970;2023-02-28T06:25:53;9.98;;;3.90;;
67063;SDS011;58476;48.072;11.970;2023-02-28T06:28:19;8.95;;;3.42;;
67063;SDS011;58476;48.072;11.970;2023-02-28T06:30:44;10.23;;;3.60;;
67063;SDS011;58476;48.072;11.970;2023-02-28T06:33:10;11.00;;;3.55;;
67063;SDS011;58476;48.072;11.970;2023-02-28T06:35:35;12.07;;;3.70;;
67063;SDS011;58476;48.072;11.970;2023-02-28T06:38:00;10.32;;;5.35;;
67063;SDS011;58476;48.072;11.970;2023-02-28T06:40:26;12.25;;;3.58;;
67063;SDS011;58476;48.072;11.970;2023-02-28T06:42:51;8.75;;;3.30;;
67063;SDS011;58476;48.072;11.970;2023-02-28T06:45:16;8.55;;;3.40;;
67063;SDS011;58476;48.072;11.970;2023-02-28T06:47:42;8.43;;;3.60;;
67063;SDS011;58476;48.072;11.970;2023-02-28T06:50:08;9.25;;;3.40;;
67063;SDS011;58476;48.072;11.970;2023-02-28T06:52:35;7.65;;;2.97;;
67063;SDS011;58476;48.072;11.970;2023-02-28T06:55:00;8.82;;;3.45;;
67063;SDS011;58476;48.072;11.970;2023-02-28T06:57:29;7.47;;;3.42;;
67063;SDS011;58476;48.072;11.970;2023-02-28T06:59:56;7.07;;;4.13;;
67063;SDS011;58476;48.072;11.970;2023-02-28T07:02:22;8.68;;;3.10;;
67063;SDS011;58476;48.072;11.970;2023-02-28T07:04:48;9.10;;;3.78;;
67063;SDS011;58476;48.072;11.970;2023-02-28T07:07:13;6.95;;;3.75;;
67063;SDS011;58476;48.072;11.970;2023-02-28T07:09:38;9.13;;;3.72;;
67063;SDS011;58476;48.072;11.970;2023-02-28T07:12:04;7.05;;;3.47;;
67063;SDS011;58476;48.072;11.970;2023-02-28T07:14:29;7.78;;;3.60;;
67063;SDS011;58476;48.072;11.970;2023-02-28T07:16:54;8.25;;;3.17;;
67063;SDS011;58476;48.072;11.970;2023-02-28T07:19:20;7.88;;;3.10;;
67063;SDS011;58476;48.072;11.970;2023-02-28T07:21:45;8.48;;;3.40;;
67063;SDS011;58476;48.072;11.970;2023-02-28T07:24:10;6.97;;;3.72;;
67063;SDS011;58476;48.072;11.970;2023-02-28T07:26:36;8.95;;;3.50;;
67063;SDS011;58476;48.072;11.970;2023-02-28T07:29:01;7.97;;;4.07;;
67063;SDS011;58476;48.072;11.970;2023-02-28T07:31:26;5.38;;;3.40;;
67063;SDS011;58476;48.072;11.970;2023-02-28T07:33:52;6.03;;;3.20;;
67063;SDS011;58476;48.072;11.970;2023-02-28T07:36:17;11.30;;;3.53;;
67063;SDS011;58476;48.072;11.970;2023-02-28T07:38:43;5.10;;;3.28;;
67063;SDS011;58476;48.072;11.970;2023-02-28T07:41:12;11.10;;;3.63;;
67063;SDS011;58476;48.072;11.970;2023-02-28T07:43:37;8.45;;;3.50;;
67063;SDS011;58476;48.072;11.970;2023-02-28T07:46:07;7.25;;;3.88;;
67063;SDS011;58476;48.072;11.970;2023-02-28T07:48:35;7.72;;;3.30;;
67063;SDS011;58476;48.072;11.970;2023-02-28T07:51:00;13.50;;;3.42;;
67063;SDS011;58476;48.072;11.970;2023-02-28T07:53:26;11.85;;;3.72;;
67063;SDS011;58476;48.072;11.970;2023-02-28T07:55:56;11.18;;;3.88;;
67063;SDS011;58476;48.072;11.970;2023-02-28T07:58:22;10.40;;;4.10;;
67063;SDS011;58476;48.072;11.970;2023-02-28T08:00:48;15.40;;;3.63;;
67063;SDS011;58476;48.072;11.970;2023-02-28T08:03:13;9.88;;;4.10;;
67063;SDS011;58476;48.072;11.970;2023-02-28T08:05:39;12.80;;;4.38;;
67063;SDS011;58476;48.072;11.970;2023-02-28T08:08:05;12.57;;;4.13;;
67063;SDS011;58476;48.072;11.970;2023-02-28T08:10:31;10.20;;;4.00;;
67063;SDS011;58476;48.072;11.970;2023-02-28T08:12:56;7.32;;;3.95;;
67063;SDS011;58476;48.072;11.970;2023-02-28T08:15:22;13.20;;;3.80;;
67063;SDS011;58476;48.072;11.970;2023-02-28T08:17:47;10.40;;;4.00;;
67063;SDS011;58476;48.072;11.970;2023-02-28T08:20:12;7.25;;;3.60;;
67063;SDS011;58476;48.072;11.970;2023-02-28T08:22:38;10.73;;;3.95;;
67063;SDS011;58476;48.072;11.970;2023-02-28T08:25:03;12.20;;;4.45;;
67063;SDS011;58476;48.072;11.970;2023-02-28T08:27:29;8.18;;;3.63;;
67063;SDS011;58476;48.072;11.970;2023-02-28T08:29:54;5.82;;;3.30;;
67063;SDS011;58476;48.072;11.970;2023-02-28T08:32:20;9.02;;;5.22;;
67063;SDS011;58476;48.072;11.970;2023-02-28T08:34:45;6.60;;;4.80;;
67063;SDS011;58476;48.072;11.970;2023-02-28T08:37:10;8.40;;;3.50;;
67063;SDS011;58476;48.072;11.970;2023-02-28T08:39:36;9.95;;;3.58;;
67063;SDS011;58476;48.072;11.970;2023-02-28T08:42:02;9.10;;;3.50;;
67063;SDS011;58476;48.072;11.970;2023-02-28T08:44:28;9.38;;;3.63;;
67063;SDS011;58476;48.072;11.970;2023-02-28T08:46:53;8.82;;;4.00;;
67063;SDS011;58476;48.072;11.970;2023-02-28T08:49:19;6.00;;;3.78;;
67063;SDS011;58476;48.072;11.970;2023-02-28T08:51:44;7.07;;;3.95;;
67063;SDS011;58476;48.072;11.970;2023-02-28T08:54:10;6.07;;;4.18;;
67063;SDS011;58476;48.072;11.970;2023-02-28T08:56:35;6.40;;;3.83;;
67063;SDS011;58476;48.072;11.970;2023-02-28T08:59:00;5.25;;;3.63;;
67063;SDS011;58476;48.072;11.970;2023-02-28T09:01:26;6.15;;;4.00;;
67063;SDS011;58476;48.072;11.970;2023-02-28T09:03:53;4.90;;;3.50;;
67063;SDS011;58476;48.072;11.970;2023-02-28T09:06:20;7.38;;;3.67;;
67063;SDS011;58476;48.072;11.970;2023-02-28T09:08:47;6.95;;;4.25;;
67063;SDS011;58476;48.072;11.970;2023-02-28T09:11:13;6.53;;;3.88;;
67063;SDS011;58476;48.072;11.970;2023-02-28T09:13:39;6.80;;;4.07;;
67063;SDS011;58476;48.072;11.970;2023-02-28T09:16:05;8.65;;;3.75;;
67063;SDS011;58476;48.072;11.970;2023-02-28T09:18:33;8.52;;;4.25;;
67063;SDS011;58476;48.072;11.970;2023-02-28T09:21:00;6.35;;;3.55;;
67063;SDS011;58476;48.072;11.970;2023-02-28T09:23:28;6.70;;;4.00;;
67063;SDS011;58476;48.072;11.970;2023-02-28T09:25:53;5.78;;;3.72;;
67063;SDS011;58476;48.072;11.970;2023-02-28T09:28:20;9.63;;;4.20;;
67063;SDS011;58476;48.072;11.970;2023-02-28T09:30:47;5.32;;;3.65;;
67063;SDS011;58476;48.072;11.970;2023-02-28T09:33:17;8.05;;;3.95;;
67063;SDS011;58476;48.072;11.970;2023-02-28T09:35:42;7.43;;;3.90;;
67063;SDS011;58476;48.072;11.970;2023-02-28T09:38:08;6.70;;;3.70;;
67063;SDS011;58476;48.072;11.970;2023-02-28T09:43:21;7.00;;;4.05;;
67063;SDS011;58476;48.072;11.970;2023-02-28T09:45:51;7.28;;;3.67;;
67063;SDS011;58476;48.072;11.970;2023-02-28T09:48:23;5.47;;;4.20;;
67063;SDS011;58476;48.072;11.970;2023-02-28T09:50:52;5.45;;;4.13;;
67063;SDS011;58476;48.072;11.970;2023-02-28T09:53:33;6.50;;;4.22;;
67063;SDS011;58476;48.072;11.970;2023-02-28T09:56:02;8.50;;;4.13;;
67063;SDS011;58476;48.072;11.970;2023-02-28T10:10:27;8.38;;;4.20;;
67063;SDS011;58476;48.072;11.970;2023-02-28T10:12:53;7.65;;;4.30;;
67063;SDS011;58476;48.072;11.970;2023-02-28T10:15:23;5.03;;;3.80;;
67063;SDS011;58476;48.072;11.970;2023-02-28T10:17:52;6.07;;;4.03;;
67063;SDS011;58476;48.072;11.970;2023-02-28T10:20:21;6.53;;;4.13;;
67063;SDS011;58476;48.072;11.970;2023-02-28T10:22:53;7.25;;;4.43;;
67063;SDS011;58476;48.072;11.970;2023-02-28T10:25:26;7.28;;;4.47;;
67063;SDS011;58476;48.072;11.970;2023-02-28T10:27:53;5.72;;;3.97;;
67063;SDS011;58476;48.072;11.970;2023-02-28T10:30:22;6.87;;;4.30;;
67063;SDS011;58476;48.072;11.970;2023-02-28T10:32:51;6.82;;;4.00;;
67063;SDS011;58476;48.072;11.970;2023-02-28T10:37:54;6.00;;;4.10;;
67063;SDS011;58476;48.072;11.970;2023-02-28T10:42:56;6.28;;;4.05;;
67063;SDS011;58476;48.072;11.970;2023-02-28T10:45:23;7.50;;;4.13;;
67063;SDS011;58476;48.072;11.970;2023-02-28T10:50:44;8.15;;;4.13;;
67063;SDS011;58476;48.072;11.970;2023-02-28T10:53:22;6.47;;;4.25;;
67063;SDS011;58476;48.072;11.970;2023-02-28T10:56:23;6.40;;;4.30;;
67063;SDS011;58476;48.072;11.970;2023-02-28T10:58:57;7.07;;;4.57;;
67063;SDS011;58476;48.072;11.970;2023-02-28T11:01:42;8.60;;;3.88;;
67063;SDS011;58476;48.072;11.970;2023-02-28T11:06:47;6.18;;;4.40;;
67063;SDS011;58476;48.072;11.970;2023-02-28T11:09:28;6.65;;;3.92;;
67063;SDS011;58476;48.072;11.970;2023-02-28T11:11:59;9.27;;;4.60;;
67063;SDS011;58476;48.072;11.970;2023-02-28T11:14:25;6.43;;;4.30;;
67063;SDS011;58476;48.072;11.970;2023-02-28T11:16:53;5.47;;;4.15;;
67063;SDS011;58476;48.072;11.970;2023-02-28T11:19:43;6.22;;;4.05;;
67063;SDS011;58476;48.072;11.970;2023-02-28T11:22:10;5.97;;;4.43;;
67063;SDS011;58476;48.072;11.970;2023-02-28T11:24:44;5.22;;;3.97;;
67063;SDS011;58476;48.072;11.970;2023-02-28T11:29:49;6.15;;;5.10;;
67063;SDS011;58476;48.072;11.970;2023-02-28T11:32:19;7.05;;;4.20;;
67063;SDS011;58476;48.072;11.970;2023-02-28T11:34:46;6.78;;;4.28;;
67063;SDS011;58476;48.072;11.970;2023-02-28T11:37:24;6.13;;;4.22;;
67063;SDS011;58476;48.072;11.970;2023-02-28T11:39:52;9.32;;;4.43;;
67063;SDS011;58476;48.072;11.970;2023-02-28T11:45:28;6.32;;;4.57;;
67063;SDS011;58476;48.072;11.970;2023-02-28T11:48:01;6.57;;;4.38;;
67063;SDS011;58476;48.072;11.970;2023-02-28T11:50:45;8.35;;;4.70;;
67063;SDS011;58476;48.072;11.970;2023-02-28T11:58:47;8.45;;;4.43;;
67063;SDS011;58476;48.072;11.970;2023-02-28T12:09:53;6.40;;;4.25;;
67063;SDS011;58476;48.072;11.970;2023-02-28T12:15:17;6.80;;;4.60;;
67063;SDS011;58476;48.072;11.970;2023-02-28T12:21:04;6.78;;;4.68;;
67063;SDS011;58476;48.072;11.970;2023-02-28T12:31:29;7.20;;;5.00;;
67063;SDS011;58476;48.072;11.970;2023-02-28T12:34:03;7.47;;;4.85;;
67063;SDS011;58476;48.072;11.970;2023-02-28T12:36:34;5.85;;;4.25;;
67063;SDS011;58476;48.072;11.970;2023-02-28T12:39:03;8.82;;;4.35;;
67063;SDS011;58476;48.072;11.970;2023-02-28T12:41:48;7.72;;;4.20;;
67063;SDS011;58476;48.072;11.970;2023-02-28T12:46:51;6.35;;;4.60;;
67063;SDS011;58476;48.072;11.970;2023-02-28T12:49:25;11.82;;;4.60;;
67063;SDS011;58476;48.072;11.970;2023-02-28T12:51:55;7.38;;;4.55;;
67063;SDS011;58476;48.072;11.970;2023-02-28T12:54:32;5.80;;;4.70;;
67063;SDS011;58476;48.072;11.970;2023-02-28T13:10:49;6.65;;;4.55;;
67063;SDS011;58476;48.072;11.970;2023-02-28T13:13:17;6.30;;;4.60;;
67063;SDS011;58476;48.072;11.970;2023-02-28T13:16:04;6.78;;;4.70;;
67063;SDS011;58476;48.072;11.970;2023-02-28T13:18:44;6.55;;;4.30;;
67063;SDS011;58476;48.072;11.970;2023-02-28T13:21:28;7.43;;;4.73;;
67063;SDS011;58476;48.072;11.970;2023-02-28T13:26:20;10.15;;;4.78;;
67063;SDS011;58476;48.072;11.970;2023-02-28T13:31:13;6.53;;;4.43;;
67063;SDS011;58476;48.072;11.970;2023-02-28T13:38:41;9.05;;;4.72;;
67063;SDS011;58476;48.072;11.970;2023-02-28T13:47:22;10.68;;;5.10;;
67063;SDS011;58476;48.072;11.970;2023-02-28T13:49:49;8.13;;;4.82;;
67063;SDS011;58476;48.072;11.970;2023-02-28T13:52:16;9.30;;;4.93;;
67063;SDS011;58476;48.072;11.970;2023-02-28T13:54:50;9.82;;;4.63;;
67063;SDS011;58476;48.072;11.970;2023-02-28T14:05:46;8.43;;;4.53;;
67063;SDS011;58476;48.072;11.970;2023-02-28T14:08:14;7.65;;;4.25;;
67063;SDS011;58476;48.072;11.970;2023-02-28T14:10:44;12.70;;;4.75;;
67063;SDS011;58476;48.072;11.970;2023-02-28T14:13:12;11.00;;;4.90;;
67063;SDS011;58476;48.072;11.970;2023-02-28T14:15:57;13.75;;;4.75;;
67063;SDS011;58476;48.072;11.970;2023-02-28T14:18:31;9.05;;;4.50;;
67063;SDS011;58476;48.072;11.970;2023-02-28T14:27:03;10.05;;;4.05;;
67063;SDS011;58476;48.072;11.970;2023-02-28T14:32:18;10.02;;;4.40;;
67063;SDS011;58476;48.072;11.970;2023-02-28T14:34:50;10.90;;;4.88;;
67063;SDS011;58476;48.072;11.970;2023-02-28T14:37:29;13.25;;;4.45;;
67063;SDS011;58476;48.072;11.970;2023-02-28T14:39:57;13.77;;;4.45;;
67063;SDS011;58476;48.072;11.970;2023-02-28T14:42:29;17.38;;;4.10;;
67063;SDS011;58476;48.072;11.970;2023-02-28T14:45:02;13.15;;;5.30;;
67063;SDS011;58476;48.072;11.970;2023-02-28T14:47:28;8.98;;;4.15;;
67063;SDS011;58476;48.072;11.970;2023-02-28T14:49:57;9.40;;;4.18;;
67063;SDS011;58476;48.072;11.970;2023-02-28T14:52:24;10.60;;;4.00;;
67063;SDS011;58476;48.072;11.970;2023-02-28T14:55:13;13.77;;;3.97;;
67063;SDS011;58476;48.072;11.970;2023-02-28T14:57:40;6.82;;;4.22;;
67063;SDS011;58476;48.072;11.970;2023-02-28T15:00:16;8.80;;;3.92;;
67063;SDS011;58476;48.072;11.970;2023-02-28T15:02:49;7.57;;;4.20;;
67063;SDS011;58476;48.072;11.970;2023-02-28T15:07:40;8.13;;;4.30;;
67063;SDS011;58476;48.072;11.970;2023-02-28T15:10:13;12.52;;;3.97;;
67063;SDS011;58476;48.072;11.970;2023-02-28T15:12:47;8.10;;;4.10;;
67063;SDS011;58476;48.072;11.970;2023-02-28T15:15:16;13.20;;;3.78;;
67063;SDS011;58476;48.072;11.970;2023-02-28T15:17:45;16.17;;;3.95;;
67063;SDS011;58476;48.072;11.970;2023-02-28T15:20:14;9.60;;;3.97;;
67063;SDS011;58476;48.072;11.970;2023-02-28T15:22:40;14.55;;;3.70;;
67063;SDS011;58476;48.072;11.970;2023-02-28T15:25:06;15.93;;;4.70;;
67063;SDS011;58476;48.072;11.970;2023-02-28T15:27:35;10.25;;;3.97;;
67063;SDS011;58476;48.072;11.970;2023-02-28T15:30:14;9.60;;;3.95;;
67063;SDS011;58476;48.072;11.970;2023-02-28T15:32:42;9.82;;;3.80;;
67063;SDS011;58476;48.072;11.970;2023-02-28T15:37:58;10.25;;;3.63;;
67063;SDS011;58476;48.072;11.970;2023-02-28T15:40:40;10.00;;;3.83;;
67063;SDS011;58476;48.072;11.970;2023-02-28T15:43:18;8.33;;;4.07;;
67063;SDS011;58476;48.072;11.970;2023-02-28T15:51:08;6.93;;;3.83;;
67063;SDS011;58476;48.072;11.970;2023-02-28T15:53:44;10.65;;;3.92;;
67063;SDS011;58476;48.072;11.970;2023-02-28T15:56:32;14.32;;;3.50;;
67063;SDS011;58476;48.072;11.970;2023-02-28T15:59:02;5.40;;;3.28;;
67063;SDS011;58476;48.072;11.970;2023-02-28T16:04:02;10.68;;;3.60;;
67063;SDS011;58476;48.072;11.970;2023-02-28T16:06:39;5.88;;;3.20;;
67063;SDS011;58476;48.072;11.970;2023-02-28T16:09:07;9.18;;;3.67;;
67063;SDS011;58476;48.072;11.970;2023-02-28T16:11:37;9.27;;;3.65;;
67063;SDS011;58476;48.072;11.970;2023-02-28T16:14:04;8.40;;;3.87;;
67063;SDS011;58476;48.072;11.970;2023-02-28T16:16:30;9.23;;;3.47;;
67063;SDS011;58476;48.072;11.970;2023-02-28T16:18:56;8.55;;;3.65;;
67063;SDS011;58476;48.072;11.970;2023-02-28T16:21:21;10.25;;;3.83;;
67063;SDS011;58476;48.072;11.970;2023-02-28T16:23:46;9.20;;;3.58;;
67063;SDS011;58476;48.072;11.970;2023-02-28T16:26:16;8.35;;;3.90;;
67063;SDS011;58476;48.072;11.970;2023-02-28T16:28:46;12.15;;;3.65;;
67063;SDS011;58476;48.072;11.970;2023-02-28T16:31:11;10.50;;;4.25;;
67063;SDS011;58476;48.072;11.970;2023-02-28T16:33:37;23.15;;;4.25;;
67063;SDS011;58476;48.072;11.970;2023-02-28T16:36:02;14.30;;;3.88;;
67063;SDS011;58476;48.072;11.970;2023-02-28T16:38:28;7.60;;;3.65;;
67063;SDS011;58476;48.072;11.970;2023-02-28T16:43:55;7.63;;;3.33;;
67063;SDS011;58476;48.072;11.970;2023-02-28T16:46:23;11.65;;;3.90;;
67063;SDS011;58476;48.072;11.970;2023-02-28T16:48:49;7.45;;;3.88;;
67063;SDS011;58476;48.072;11.970;2023-02-28T16:51:15;11.05;;;3.90;;
67063;SDS011;58476;48.072;11.970;2023-02-28T16:53:41;7.80;;;3.90;;
67063;SDS011;58476;48.072;11.970;2023-02-28T16:56:10;5.57;;;3.50;;
67063;SDS011;58476;48.072;11.970;2023-02-28T16:58:45;14.27;;;3.80;;
67063;SDS011;58476;48.072;11.970;2023-02-28T17:01:11;11.18;;;4.00;;
67063;SDS011;58476;48.072;11.970;2023-02-28T17:03:36;5.65;;;3.20;;
67063;SDS011;58476;48.072;11.970;2023-02-28T17:06:02;9.10;;;3.72;;
67063;SDS011;58476;48.072;11.970;2023-02-28T17:08:29;8.65;;;3.83;;
67063;SDS011;58476;48.072;11.970;2023-02-28T17:10:55;6.40;;;3.60;;
67063;SDS011;58476;48.072;11.970;2023-02-28T17:13:20;5.60;;;3.50;;
67063;SDS011;58476;48.072;11.970;2023-02-28T17:15:46;7.05;;;3.78;;